createdAt,value
2022-12-13T00:00:53.486Z,14.48
2022-12-13T00:04:11.484Z,9.73
2022-12-13T00:07:19.854Z,15.57
2022-12-13T00:14:54.547Z,11.70
2022-12-13T00:18:11.758Z,11.23
2022-12-13T00:21:23.395Z,13.10
2022-12-13T00:24:32.085Z,14.07
2022-12-13T00:27:50.703Z,12.50
2022-12-13T00:30:57.425Z,14.73
2022-12-13T00:34:15.361Z,14.32
2022-12-13T00:37:23.484Z,14.65
2022-12-13T00:40:41.423Z,12.45
2022-12-13T00:43:43.363Z,12.90
2022-12-13T00:46:58.394Z,12.02
2022-12-13T00:50:12.379Z,10.90
2022-12-13T00:53:27.358Z,13.97
2022-12-13T00:56:38.383Z,13.52
2022-12-13T01:03:13.568Z,11.52
2022-12-13T01:06:29.529Z,12.60
2022-12-13T01:09:38.374Z,15.20
2022-12-13T01:12:46.922Z,14.27
2022-12-13T01:15:55.399Z,14.50
2022-12-13T01:19:13.406Z,14.30
2022-12-13T01:22:18.256Z,13.35
2022-12-13T01:25:33.370Z,15.17
2022-12-13T01:28:53.689Z,17.17
2022-12-13T01:32:02.266Z,19.08
2022-12-13T01:35:10.475Z,11.15
2022-12-13T01:38:26.849Z,15.68
2022-12-13T01:41:35.399Z,15.60
2022-12-13T01:45:05.753Z,15.68
2022-12-13T01:48:27.281Z,12.87
2022-12-13T01:51:50.408Z,14.77
2022-12-13T01:55:03.235Z,13.73
2022-12-13T01:59:00.357Z,15.00
2022-12-13T02:02:23.373Z,15.77
2022-12-13T02:05:37.921Z,14.13
2022-12-13T02:08:49.445Z,14.98
2022-12-13T02:11:58.030Z,18.45
2022-12-13T02:15:19.560Z,13.82
2022-12-13T02:19:11.453Z,13.65
2022-12-13T02:22:40.166Z,12.60
2022-12-13T02:26:33.427Z,12.15
2022-12-13T02:30:05.421Z,13.13
2022-12-13T02:33:35.420Z,16.33
2022-12-13T02:37:18.236Z,14.65
2022-12-13T02:40:32.556Z,15.45
2022-12-13T02:43:49.435Z,13.62
2022-12-13T02:47:21.821Z,10.63
2022-12-13T02:50:37.110Z,14.40
2022-12-13T02:53:52.370Z,9.35
2022-12-13T02:57:16.631Z,11.27
2022-12-13T03:00:53.427Z,10.98
2022-12-13T03:04:38.622Z,12.90
2022-12-13T03:08:11.557Z,9.83
2022-12-13T03:11:27.422Z,12.20
2022-12-13T03:14:34.788Z,14.63
2022-12-13T03:18:00.474Z,13.25
2022-12-13T03:21:11.722Z,14.48
2022-12-13T03:24:28.397Z,11.70
2022-12-13T03:27:36.602Z,15.13
2022-12-13T03:30:46.661Z,11.87
2022-12-13T03:33:55.531Z,12.02
2022-12-13T03:37:04.831Z,13.32
2022-12-13T03:40:13.426Z,23.10
2022-12-13T03:43:23.089Z,12.00
2022-12-13T03:46:31.478Z,12.60
2022-12-13T03:49:46.407Z,16.10
2022-12-13T03:53:00.771Z,13.57
2022-12-13T03:56:15.401Z,16.85
2022-12-13T03:59:17.158Z,15.30
2022-12-13T04:02:34.591Z,14.77
2022-12-13T04:05:39.334Z,12.70
2022-12-13T04:08:54.526Z,11.48
2022-12-13T04:11:56.481Z,12.85
2022-12-13T04:19:58.080Z,11.38
2022-12-13T04:23:10.751Z,10.43
2022-12-13T04:26:25.399Z,15.77
2022-12-13T04:33:28.667Z,14.18
2022-12-13T04:36:43.416Z,14.87
2022-12-13T04:40:00.835Z,15.00
2022-12-13T04:43:35.595Z,16.23
2022-12-13T04:46:46.561Z,15.38
2022-12-13T04:54:23.628Z,14.45
2022-12-13T04:57:45.571Z,14.80
2022-12-13T05:01:23.479Z,14.07
2022-12-13T05:04:33.195Z,13.02
2022-12-13T05:11:24.569Z,13.50
2022-12-13T05:14:26.483Z,11.10
2022-12-13T05:21:35.642Z,12.50
2022-12-13T05:24:52.402Z,14.80
2022-12-13T05:28:27.651Z,17.40
2022-12-13T05:31:39.459Z,14.60
2022-12-13T05:34:48.079Z,12.73
2022-12-13T05:38:48.684Z,17.95
2022-12-13T05:42:16.466Z,13.57
2022-12-13T05:45:27.516Z,16.75
2022-12-13T06:03:21.200Z,16.33
2022-12-13T06:10:34.731Z,14.77
2022-12-13T06:13:44.484Z,16.70
2022-12-13T06:16:57.891Z,16.37
2022-12-13T06:20:24.451Z,15.30
2022-12-13T06:24:17.480Z,16.20
2022-12-13T06:32:07.979Z,15.10
2022-12-13T06:50:37.782Z,17.58
2022-12-13T06:54:38.562Z,14.18
2022-12-13T07:01:55.518Z,14.48
2022-12-13T07:05:31.148Z,16.77
2022-12-13T08:37:01.426Z,10.05
2022-12-13T11:26:05.602Z,10.77
2022-12-13T12:35:34.680Z,9.97
2022-12-13T12:44:31.464Z,11.77
2022-12-13T12:52:23.515Z,9.80
2022-12-13T13:20:25.033Z,11.55
2022-12-13T13:27:25.695Z,10.38
2022-12-13T14:11:08.642Z,12.02
2022-12-13T14:15:20.410Z,10.15
2022-12-13T14:23:13.462Z,9.40
2022-12-13T14:27:21.032Z,9.90
2022-12-13T14:46:12.558Z,11.95
2022-12-13T14:49:59.462Z,20.85
2022-12-13T14:54:06.602Z,13.53
2022-12-13T15:22:18.807Z,15.80
2022-12-13T15:25:45.539Z,13.67
2022-12-13T16:06:28.486Z,15.40
2022-12-13T16:27:51.320Z,15.90
2022-12-13T16:31:37.605Z,19.42
2022-12-13T16:36:29.466Z,14.38
2022-12-13T16:50:40.514Z,18.98
2022-12-13T16:54:33.955Z,18.97
2022-12-13T17:02:23.691Z,17.65
2022-12-13T17:17:18.049Z,23.45
2022-12-13T17:20:41.293Z,19.95
2022-12-13T17:46:40.546Z,26.30
2022-12-13T18:06:12.506Z,22.58
2022-12-13T18:21:42.518Z,24.23
2022-12-13T18:56:39.487Z,22.55
2022-12-13T19:11:59.415Z,24.27
2022-12-13T19:15:20.294Z,26.15
2022-12-13T21:31:18.554Z,29.08
2022-12-13T21:34:55.030Z,27.53
2022-12-13T21:42:30.510Z,34.03
2022-12-13T22:17:01.250Z,27.05
2022-12-13T22:20:40.597Z,29.30
2022-12-13T22:23:59.154Z,32.03
2022-12-13T22:27:38.581Z,25.12
2022-12-13T22:57:22.545Z,26.35
2022-12-13T23:01:12.202Z,35.87
2022-12-13T23:04:40.631Z,29.87
2022-12-13T23:12:55.548Z,25.83
2022-12-13T23:20:22.597Z,32.90
2022-12-13T23:25:22.278Z,30.42
2022-12-13T23:27:16.049Z,30.70
2022-12-13T23:31:28.188Z,33.75
2022-12-13T23:34:26.241Z,26.83
2022-12-13T23:37:48.454Z,27.30
2022-12-13T23:45:34.534Z,26.55
2022-12-13T23:49:43.621Z,29.95
